createdAt,value
2019-03-04T00:00:01.590Z,10.6
2019-03-04T00:05:01.402Z,10.6
2019-03-04T00:10:02.108Z,10.6
2019-03-04T00:15:01.997Z,10.6
2019-03-04T00:20:01.644Z,10.6
2019-03-04T00:25:01.896Z,10.7
2019-03-04T00:30:02.332Z,10.6
2019-03-04T00:35:01.931Z,10.7
2019-03-04T00:40:01.784Z,10.7
2019-03-04T00:45:01.263Z,10.8
2019-03-04T00:50:02.139Z,10.9
2019-03-04T00:55:01.593Z,11
2019-03-04T01:00:01.347Z,11
2019-03-04T01:05:02.107Z,11.1
2019-03-04T01:10:01.661Z,11.1
2019-03-04T01:15:02.054Z,11.1
2019-03-04T01:20:01.790Z,11.1
2019-03-04T01:25:01.956Z,11.1
2019-03-04T01:30:02.577Z,11.1
2019-03-04T01:35:01.592Z,11.1
2019-03-04T01:45:01.771Z,11.1
2019-03-04T01:50:01.514Z,11.1
2019-03-04T01:55:01.317Z,11
2019-03-04T02:00:02.473Z,11
2019-03-04T02:05:02.090Z,11
2019-03-04T02:10:01.889Z,11
2019-03-04T02:15:01.858Z,11
2019-03-04T02:20:02.208Z,11
2019-03-04T02:25:01.983Z,11.1
2019-03-04T02:30:01.574Z,11
2019-03-04T02:35:01.345Z,11
2019-03-04T02:40:01.441Z,10.9
2019-03-04T02:45:01.550Z,10.7
2019-03-04T02:50:01.809Z,10.7
2019-03-04T02:55:01.560Z,10.7
2019-03-04T03:00:01.588Z,10.7
2019-03-04T03:05:01.525Z,10.7
2019-03-04T03:10:02.280Z,10.6
2019-03-04T03:15:01.503Z,10.5
2019-03-04T03:20:01.625Z,10.5
2019-03-04T03:25:02.007Z,10.5
2019-03-04T03:30:01.940Z,10.5
2019-03-04T03:35:01.640Z,10.5
2019-03-04T03:40:01.906Z,10.6
2019-03-04T03:45:02.187Z,10.6
2019-03-04T03:50:02.162Z,10.6
2019-03-04T03:55:01.774Z,10.7
2019-03-04T04:00:01.762Z,10.7
2019-03-04T04:05:01.987Z,10.8
2019-03-04T04:10:01.213Z,10.8
2019-03-04T04:15:01.720Z,10.8
2019-03-04T04:20:01.567Z,10.9
2019-03-04T04:25:02.199Z,10.9
2019-03-04T04:30:01.236Z,10.9
2019-03-04T04:35:01.716Z,10.9
2019-03-04T04:40:01.819Z,10.9
2019-03-04T04:45:01.425Z,10.9
2019-03-04T04:50:02.359Z,10.9
2019-03-04T04:55:01.280Z,11
2019-03-04T05:00:01.847Z,11
2019-03-04T05:05:01.875Z,11
2019-03-04T05:10:02.279Z,11
2019-03-04T05:15:01.664Z,11.1
2019-03-04T05:20:01.623Z,11.1
2019-03-04T05:25:02.016Z,11.1
2019-03-04T05:30:01.949Z,11
2019-03-04T05:35:02.105Z,10.9
2019-03-04T05:40:01.900Z,10.9
2019-03-04T05:45:01.562Z,10.8
2019-03-04T05:50:01.347Z,10.8
2019-03-04T05:55:01.847Z,10.8
2019-03-04T06:00:01.826Z,10.7
2019-03-04T06:05:01.656Z,10.5
2019-03-04T06:10:01.978Z,10.5
2019-03-04T06:15:02.351Z,10.5
2019-03-04T06:20:01.651Z,10.4
2019-03-04T06:25:02.021Z,10.4
2019-03-04T06:30:01.408Z,10.4
2019-03-04T06:35:02.058Z,10.4
2019-03-04T06:40:01.627Z,10.4
2019-03-04T06:45:01.925Z,10.4
2019-03-04T06:50:02.075Z,10.4
2019-03-04T06:55:01.556Z,10.5
2019-03-04T07:00:01.391Z,10.4
2019-03-04T07:05:01.286Z,10.5
2019-03-04T07:10:01.493Z,10.6
2019-03-04T07:15:01.379Z,10.6
2019-03-04T07:20:02.069Z,10.7
2019-03-04T07:25:02.126Z,10.8
2019-03-04T07:30:01.771Z,10.8
2019-03-04T07:35:01.652Z,10.9
2019-03-04T07:40:01.831Z,11
2019-03-04T07:45:02.027Z,11
2019-03-04T07:50:01.786Z,11.1
2019-03-04T07:55:01.802Z,11.2
2019-03-04T08:00:01.559Z,11.2
2019-03-04T08:05:01.307Z,11.2
2019-03-04T08:10:01.586Z,11.3
2019-03-04T08:15:01.725Z,11.4
2019-03-04T08:20:01.392Z,11.6
2019-03-04T08:25:01.272Z,11.7
2019-03-04T08:30:01.381Z,11.8
2019-03-04T08:35:01.377Z,12
2019-03-04T08:40:01.607Z,12
2019-03-04T08:45:02.025Z,12.1
2019-03-04T08:50:02.052Z,12
2019-03-04T08:55:01.526Z,12.1
2019-03-04T09:00:02.202Z,12.1
2019-03-04T09:05:01.730Z,12.1
2019-03-04T09:10:02.243Z,12.1
2019-03-04T09:15:01.517Z,12.1
2019-03-04T09:20:01.640Z,12.1
2019-03-04T09:25:01.854Z,12.2
2019-03-04T09:30:01.788Z,12.3
2019-03-04T09:35:02.243Z,12.3
2019-03-04T09:40:01.541Z,12.3
2019-03-04T09:45:01.707Z,12.1
2019-03-04T09:50:01.737Z,10.4
2019-03-04T09:55:02.104Z,9.7
2019-03-04T10:00:01.756Z,9.2
2019-03-04T10:05:01.801Z,8.9
2019-03-04T10:10:02.018Z,8.8
2019-03-04T10:15:08.143Z,9
2019-03-04T10:20:01.861Z,9.3
2019-03-04T10:25:01.689Z,9.4
2019-03-04T10:30:02.407Z,9.3
2019-03-04T10:35:01.853Z,9.2
2019-03-04T10:40:01.417Z,9.2
2019-03-04T10:45:01.859Z,9.2
2019-03-04T10:50:02.067Z,9.1
2019-03-04T10:55:01.968Z,9.2
2019-03-04T11:00:01.332Z,9.3
2019-03-04T11:05:01.341Z,9.4
2019-03-04T11:10:01.599Z,9.3
2019-03-04T11:15:01.777Z,9.3
2019-03-04T11:20:02.089Z,9.3
2019-03-04T11:25:02.549Z,9.4
2019-03-04T11:30:02.509Z,9.8
2019-03-04T11:35:01.484Z,10.3
2019-03-04T11:40:01.894Z,10.5
2019-03-04T11:45:02.205Z,10.7
2019-03-04T11:50:01.979Z,10.8
2019-03-04T11:55:01.875Z,11.1
2019-03-04T12:00:01.402Z,11.2
2019-03-04T12:05:02.142Z,11.3
2019-03-04T12:10:01.853Z,11.1
2019-03-04T12:15:02.163Z,10.6
2019-03-04T12:20:01.290Z,10.3
2019-03-04T12:25:01.388Z,9.5
2019-03-04T12:30:01.783Z,7.4
2019-03-04T12:35:01.528Z,7.1
2019-03-04T12:40:01.860Z,7.2
2019-03-04T12:45:01.388Z,7.3
2019-03-04T12:50:01.482Z,7.5
2019-03-04T12:55:01.818Z,7.6
2019-03-04T13:00:02.080Z,7.8
2019-03-04T13:05:01.678Z,7.8
2019-03-04T13:10:01.534Z,7.8
2019-03-04T13:15:01.351Z,7.9
2019-03-04T13:20:01.727Z,7.9
2019-03-04T13:25:01.871Z,7.9
2019-03-04T13:30:01.372Z,8
2019-03-04T13:35:01.328Z,8.3
2019-03-04T13:40:02.383Z,8.4
2019-03-04T13:45:01.620Z,8.4
2019-03-04T13:50:01.561Z,8.4
2019-03-04T13:55:01.232Z,8.6
2019-03-04T14:00:02.883Z,8.6
2019-03-04T14:05:01.908Z,8.6
2019-03-04T14:10:01.560Z,8.7
2019-03-04T14:15:01.773Z,9
2019-03-04T14:20:02.285Z,9.2
2019-03-04T14:25:01.435Z,9.4
2019-03-04T14:30:02.127Z,9.3
2019-03-04T14:35:01.898Z,9.3
2019-03-04T14:40:02.400Z,9.3
2019-03-04T14:45:01.969Z,9.1
2019-03-04T14:50:09.373Z,9
2019-03-04T14:55:01.248Z,8.8
2019-03-04T15:00:02.401Z,8.8
2019-03-04T15:05:02.058Z,8.7
2019-03-04T15:10:01.889Z,8.7
2019-03-04T15:15:01.753Z,8.7
2019-03-04T15:20:09.075Z,8.7
2019-03-04T15:25:01.404Z,8.6
2019-03-04T15:30:01.879Z,8.4
2019-03-04T15:35:02.321Z,8.1
2019-03-04T15:40:02.075Z,8
2019-03-04T15:45:01.275Z,7.9
2019-03-04T15:50:01.446Z,7.7
2019-03-04T15:55:02.107Z,7.7
2019-03-04T16:00:02.177Z,7.6
2019-03-04T16:05:01.597Z,7.6
2019-03-04T16:10:01.477Z,7.5
2019-03-04T16:15:02.343Z,7.4
2019-03-04T16:20:02.375Z,7.3
2019-03-04T16:25:01.834Z,7.1
2019-03-04T16:30:01.980Z,7
2019-03-04T16:35:01.431Z,6.9
2019-03-04T16:40:01.530Z,6.8
2019-03-04T16:45:02.160Z,6.7
2019-03-04T16:50:01.945Z,6.7
2019-03-04T16:55:01.475Z,6.7
2019-03-04T17:00:02.501Z,6.7
2019-03-04T17:05:01.590Z,6.7
2019-03-04T17:10:01.594Z,6.7
2019-03-04T17:15:01.497Z,6.7
2019-03-04T17:20:01.166Z,6.8
2019-03-04T17:25:01.691Z,6.8
2019-03-04T17:30:01.217Z,6.8
2019-03-04T17:35:01.558Z,6.9
2019-03-04T17:40:02.362Z,6.9
2019-03-04T17:45:01.257Z,6.9
2019-03-04T17:50:01.885Z,6.9
2019-03-04T17:55:02.074Z,6.9
2019-03-04T18:00:02.370Z,7
2019-03-04T18:05:02.168Z,7
2019-03-04T18:10:02.407Z,6.9
2019-03-04T18:15:02.016Z,7
2019-03-04T18:20:02.278Z,7
2019-03-04T18:25:02.159Z,7
2019-03-04T18:30:01.722Z,7
2019-03-04T18:35:02.111Z,7
2019-03-04T18:40:02.228Z,7
2019-03-04T18:45:01.937Z,6.9
2019-03-04T18:50:02.614Z,6.9
2019-03-04T18:55:01.383Z,6.9
2019-03-04T19:00:01.581Z,6.9
2019-03-04T19:05:01.388Z,7
2019-03-04T19:10:01.621Z,6.9
2019-03-04T19:15:01.822Z,7
2019-03-04T19:20:01.921Z,7
2019-03-04T19:25:02.395Z,7
2019-03-04T19:30:01.995Z,7.1
2019-03-04T19:35:01.519Z,7.1
2019-03-04T19:40:01.264Z,7.1
2019-03-04T19:45:02.076Z,7.1
2019-03-04T19:50:01.704Z,7.1
2019-03-04T19:55:01.707Z,7.1
2019-03-04T20:00:01.905Z,7.1
2019-03-04T20:05:01.533Z,7.1
2019-03-04T20:10:02.084Z,7.1
2019-03-04T20:15:01.891Z,7
2019-03-04T20:20:01.525Z,7
2019-03-04T20:25:01.874Z,7.1
2019-03-04T20:30:01.373Z,7.1
2019-03-04T20:35:02.212Z,7.2
2019-03-04T20:40:03.310Z,7.3
2019-03-04T20:45:01.514Z,7.4
2019-03-04T20:50:01.513Z,7.5
2019-03-04T20:55:02.387Z,7.5
2019-03-04T21:00:01.467Z,7.5
2019-03-04T21:05:02.184Z,7.6
2019-03-04T21:10:02.035Z,7.6
2019-03-04T21:15:01.350Z,7.7
2019-03-04T21:20:01.678Z,7.7
2019-03-04T21:25:01.845Z,7.7
2019-03-04T21:30:02.314Z,7.7
2019-03-04T21:35:01.961Z,7.7
2019-03-04T21:40:02.112Z,7.7
2019-03-04T21:45:01.700Z,7.7
2019-03-04T21:50:02.321Z,7.7
2019-03-04T21:55:01.324Z,7.6
2019-03-04T22:00:02.110Z,7.6
2019-03-04T22:05:01.825Z,7.6
2019-03-04T22:10:01.520Z,7.7
2019-03-04T22:15:01.731Z,7.7
2019-03-04T22:20:01.444Z,7.7
2019-03-04T22:25:01.395Z,7.7
2019-03-04T22:30:01.372Z,7.7
2019-03-04T22:35:01.748Z,7.7
2019-03-04T22:40:01.674Z,7.7
2019-03-04T22:45:01.189Z,7.8
2019-03-04T22:50:01.565Z,7.8
2019-03-04T22:55:02.186Z,7.8
2019-03-04T23:00:01.848Z,7.7
2019-03-04T23:05:01.641Z,7.8
2019-03-04T23:10:01.492Z,7.7
2019-03-04T23:15:01.864Z,7.7
2019-03-04T23:20:01.746Z,7.8
2019-03-04T23:25:01.989Z,7.8
2019-03-04T23:30:02.212Z,7.8
2019-03-04T23:35:02.020Z,7.8
2019-03-04T23:40:02.172Z,7.8
2019-03-04T23:45:01.785Z,7.8
2019-03-04T23:50:01.680Z,7.8
2019-03-04T23:55:01.973Z,7.8
